sensor_id;sensor_type;location;lat;lon;timestamp;P1;durP1;ratioP1;P2;durP2;ratioP2
36789;SDS011;22740;52.182;8.780;2023-04-29T00:02:45;42.58;;;25.08;;
36789;SDS011;22740;52.182;8.780;2023-04-29T00:09:00;46.72;;;26.23;;
36789;SDS011;22740;52.182;8.780;2023-04-29T00:15:09;47.45;;;25.73;;
36789;SDS011;22740;52.182;8.780;2023-04-29T00:21:25;50.70;;;26.77;;
36789;SDS011;22740;52.182;8.780;2023-04-29T00:27:36;46.25;;;25.70;;
36789;SDS011;22740;52.182;8.780;2023-04-29T00:33:45;49.47;;;26.38;;
36789;SDS011;22740;52.182;8.780;2023-04-29T00:39:53;52.30;;;28.05;;
36789;SDS011;22740;52.182;8.780;2023-04-29T00:46:01;53.85;;;27.30;;
36789;SDS011;22740;52.182;8.780;2023-04-29T00:52:10;51.40;;;26.90;;
36789;SDS011;22740;52.182;8.780;2023-04-29T00:58:20;48.38;;;26.45;;
36789;SDS011;22740;52.182;8.780;2023-04-29T01:04:30;50.10;;;26.00;;
36789;SDS011;22740;52.182;8.780;2023-04-29T01:11:07;51.05;;;26.98;;
36789;SDS011;22740;52.182;8.780;2023-04-29T01:17:17;51.55;;;27.75;;
36789;SDS011;22740;52.182;8.780;2023-04-29T01:23:29;47.60;;;26.23;;
36789;SDS011;22740;52.182;8.780;2023-04-29T01:29:43;52.10;;;29.08;;
36789;SDS011;22740;52.182;8.780;2023-04-29T01:36:18;52.53;;;26.70;;
36789;SDS011;22740;52.182;8.780;2023-04-29T01:42:55;54.47;;;29.67;;
36789;SDS011;22740;52.182;8.780;2023-04-29T01:49:08;52.08;;;27.35;;
36789;SDS011;22740;52.182;8.780;2023-04-29T01:55:16;58.05;;;29.45;;
36789;SDS011;22740;52.182;8.780;2023-04-29T02:01:32;64.93;;;31.42;;
36789;SDS011;22740;52.182;8.780;2023-04-29T02:07:40;60.50;;;29.42;;
36789;SDS011;22740;52.182;8.780;2023-04-29T02:13:51;57.78;;;28.42;;
36789;SDS011;22740;52.182;8.780;2023-04-29T02:20:01;54.22;;;28.08;;
36789;SDS011;22740;52.182;8.780;2023-04-29T02:26:10;51.65;;;26.10;;
36789;SDS011;22740;52.182;8.780;2023-04-29T02:32:20;44.97;;;23.67;;
36789;SDS011;22740;52.182;8.780;2023-04-29T02:38:29;42.40;;;22.77;;
36789;SDS011;22740;52.182;8.780;2023-04-29T02:44:37;41.10;;;22.50;;
36789;SDS011;22740;52.182;8.780;2023-04-29T02:50:46;36.20;;;20.75;;
36789;SDS011;22740;52.182;8.780;2023-04-29T02:56:54;38.45;;;21.55;;
36789;SDS011;22740;52.182;8.780;2023-04-29T03:03:02;34.10;;;21.52;;
36789;SDS011;22740;52.182;8.780;2023-04-29T03:09:17;35.78;;;22.05;;
36789;SDS011;22740;52.182;8.780;2023-04-29T03:15:27;38.33;;;23.48;;
36789;SDS011;22740;52.182;8.780;2023-04-29T03:21:36;37.47;;;23.63;;
36789;SDS011;22740;52.182;8.780;2023-04-29T03:27:44;41.20;;;24.77;;
36789;SDS011;22740;52.182;8.780;2023-04-29T03:33:53;40.92;;;25.73;;
36789;SDS011;22740;52.182;8.780;2023-04-29T03:40:01;42.40;;;25.88;;
36789;SDS011;22740;52.182;8.780;2023-04-29T03:46:10;40.78;;;25.67;;
36789;SDS011;22740;52.182;8.780;2023-04-29T03:52:18;47.33;;;27.02;;
36789;SDS011;22740;52.182;8.780;2023-04-29T03:58:26;43.80;;;27.13;;
36789;SDS011;22740;52.182;8.780;2023-04-29T04:04:41;47.75;;;26.42;;
36789;SDS011;22740;52.182;8.780;2023-04-29T04:10:50;41.88;;;26.50;;
36789;SDS011;22740;52.182;8.780;2023-04-29T04:16:58;40.75;;;25.10;;
36789;SDS011;22740;52.182;8.780;2023-04-29T04:23:07;40.75;;;25.85;;
36789;SDS011;22740;52.182;8.780;2023-04-29T04:29:15;43.83;;;25.50;;
36789;SDS011;22740;52.182;8.780;2023-04-29T04:35:23;36.25;;;25.05;;
36789;SDS011;22740;52.182;8.780;2023-04-29T04:41:31;38.60;;;26.27;;
36789;SDS011;22740;52.182;8.780;2023-04-29T04:47:39;42.30;;;26.13;;
36789;SDS011;22740;52.182;8.780;2023-04-29T04:53:48;42.13;;;26.75;;
36789;SDS011;22740;52.182;8.780;2023-04-29T04:59:56;44.35;;;28.05;;
36789;SDS011;22740;52.182;8.780;2023-04-29T05:06:04;46.08;;;27.45;;
36789;SDS011;22740;52.182;8.780;2023-04-29T05:12:19;48.55;;;28.38;;
36789;SDS011;22740;52.182;8.780;2023-04-29T05:18:27;50.25;;;31.15;;
36789;SDS011;22740;52.182;8.780;2023-04-29T05:24:35;55.75;;;32.15;;
36789;SDS011;22740;52.182;8.780;2023-04-29T05:30:44;55.42;;;31.35;;
36789;SDS011;22740;52.182;8.780;2023-04-29T05:36:52;57.40;;;34.03;;
36789;SDS011;22740;52.182;8.780;2023-04-29T05:43:00;50.85;;;31.20;;
36789;SDS011;22740;52.182;8.780;2023-04-29T05:49:08;54.60;;;33.35;;
36789;SDS011;22740;52.182;8.780;2023-04-29T05:55:16;58.00;;;32.75;;
36789;SDS011;22740;52.182;8.780;2023-04-29T06:01:31;59.88;;;34.42;;
36789;SDS011;22740;52.182;8.780;2023-04-29T06:07:40;59.92;;;35.85;;
36789;SDS011;22740;52.182;8.780;2023-04-29T06:13:48;60.20;;;35.72;;
36789;SDS011;22740;52.182;8.780;2023-04-29T06:19:56;59.72;;;35.50;;
36789;SDS011;22740;52.182;8.780;2023-04-29T06:26:04;59.90;;;35.17;;
36789;SDS011;22740;52.182;8.780;2023-04-29T06:32:14;53.50;;;34.28;;
36789;SDS011;22740;52.182;8.780;2023-04-29T06:38:22;53.08;;;33.33;;
36789;SDS011;22740;52.182;8.780;2023-04-29T06:44:31;48.63;;;32.20;;
36789;SDS011;22740;52.182;8.780;2023-04-29T06:50:47;48.75;;;32.25;;
36789;SDS011;22740;52.182;8.780;2023-04-29T06:56:59;44.33;;;30.63;;
36789;SDS011;22740;52.182;8.780;2023-04-29T07:03:08;44.15;;;31.83;;
36789;SDS011;22740;52.182;8.780;2023-04-29T07:09:24;44.97;;;32.08;;
36789;SDS011;22740;52.182;8.780;2023-04-29T07:15:35;45.67;;;32.25;;
36789;SDS011;22740;52.182;8.780;2023-04-29T07:21:43;46.67;;;33.58;;
36789;SDS011;22740;52.182;8.780;2023-04-29T07:27:52;43.97;;;31.88;;
36789;SDS011;22740;52.182;8.780;2023-04-29T07:34:00;41.08;;;31.35;;
36789;SDS011;22740;52.182;8.780;2023-04-29T07:40:15;44.55;;;30.80;;
36789;SDS011;22740;52.182;8.780;2023-04-29T07:46:24;43.30;;;30.58;;
36789;SDS011;22740;52.182;8.780;2023-04-29T07:52:32;39.55;;;29.30;;
36789;SDS011;22740;52.182;8.780;2023-04-29T07:58:40;36.28;;;27.42;;
36789;SDS011;22740;52.182;8.780;2023-04-29T08:04:55;36.85;;;27.23;;
36789;SDS011;22740;52.182;8.780;2023-04-29T08:11:04;35.83;;;25.80;;
36789;SDS011;22740;52.182;8.780;2023-04-29T08:17:13;38.65;;;27.95;;
36789;SDS011;22740;52.182;8.780;2023-04-29T08:23:28;36.65;;;26.58;;
36789;SDS011;22740;52.182;8.780;2023-04-29T08:29:36;35.00;;;24.98;;
36789;SDS011;22740;52.182;8.780;2023-04-29T08:35:45;30.52;;;22.17;;
36789;SDS011;22740;52.182;8.780;2023-04-29T08:41:53;30.63;;;21.70;;
36789;SDS011;22740;52.182;8.780;2023-04-29T08:48:03;28.20;;;20.83;;
36789;SDS011;22740;52.182;8.780;2023-04-29T08:54:14;27.08;;;18.38;;
36789;SDS011;22740;52.182;8.780;2023-04-29T09:00:22;24.08;;;18.77;;
36789;SDS011;22740;52.182;8.780;2023-04-29T09:06:38;25.20;;;18.00;;
36789;SDS011;22740;52.182;8.780;2023-04-29T09:12:54;23.70;;;17.48;;
36789;SDS011;22740;52.182;8.780;2023-04-29T09:19:04;22.67;;;16.85;;
36789;SDS011;22740;52.182;8.780;2023-04-29T09:25:12;24.15;;;16.88;;
36789;SDS011;22740;52.182;8.780;2023-04-29T09:31:30;19.35;;;14.75;;
36789;SDS011;22740;52.182;8.780;2023-04-29T09:37:38;20.40;;;14.82;;
36789;SDS011;22740;52.182;8.780;2023-04-29T09:44:01;21.77;;;15.75;;
36789;SDS011;22740;52.182;8.780;2023-04-29T09:50:15;25.08;;;17.63;;
36789;SDS011;22740;52.182;8.780;2023-04-29T09:56:26;24.17;;;18.15;;
36789;SDS011;22740;52.182;8.780;2023-04-29T10:02:41;23.38;;;18.60;;
36789;SDS011;22740;52.182;8.780;2023-04-29T10:09:14;23.30;;;18.60;;
36789;SDS011;22740;52.182;8.780;2023-04-29T10:15:28;25.45;;;18.02;;
36789;SDS011;22740;52.182;8.780;2023-04-29T10:21:49;22.38;;;16.08;;
36789;SDS011;22740;52.182;8.780;2023-04-29T10:28:00;18.15;;;13.13;;
36789;SDS011;22740;52.182;8.780;2023-04-29T10:34:11;17.02;;;12.75;;
36789;SDS011;22740;52.182;8.780;2023-04-29T10:40:30;14.93;;;10.52;;
36789;SDS011;22740;52.182;8.780;2023-04-29T10:47:17;16.17;;;11.23;;
36789;SDS011;22740;52.182;8.780;2023-04-29T10:53:28;15.70;;;11.88;;
36789;SDS011;22740;52.182;8.780;2023-04-29T11:05:45;14.73;;;10.38;;
36789;SDS011;22740;52.182;8.780;2023-04-29T11:12:01;15.88;;;11.40;;
36789;SDS011;22740;52.182;8.780;2023-04-29T11:18:11;16.13;;;9.27;;
36789;SDS011;22740;52.182;8.780;2023-04-29T11:24:20;14.55;;;10.10;;
36789;SDS011;22740;52.182;8.780;2023-04-29T11:30:28;12.75;;;9.75;;
36789;SDS011;22740;52.182;8.780;2023-04-29T11:36:37;14.00;;;9.15;;
36789;SDS011;22740;52.182;8.780;2023-04-29T11:42:48;17.27;;;10.57;;
36789;SDS011;22740;52.182;8.780;2023-04-29T11:48:56;12.65;;;9.80;;
36789;SDS011;22740;52.182;8.780;2023-04-29T11:55:09;14.77;;;10.23;;
36789;SDS011;22740;52.182;8.780;2023-04-29T12:01:19;17.70;;;10.00;;
36789;SDS011;22740;52.182;8.780;2023-04-29T12:07:34;13.15;;;10.38;;
36789;SDS011;22740;52.182;8.780;2023-04-29T12:13:43;12.85;;;9.68;;
36789;SDS011;22740;52.182;8.780;2023-04-29T12:19:52;11.75;;;8.65;;
36789;SDS011;22740;52.182;8.780;2023-04-29T12:26:01;12.75;;;8.50;;
36789;SDS011;22740;52.182;8.780;2023-04-29T12:32:17;14.25;;;8.68;;
36789;SDS011;22740;52.182;8.780;2023-04-29T12:38:29;12.20;;;9.07;;
36789;SDS011;22740;52.182;8.780;2023-04-29T12:44:37;13.32;;;8.43;;
36789;SDS011;22740;52.182;8.780;2023-04-29T12:50:48;11.68;;;7.63;;
36789;SDS011;22740;52.182;8.780;2023-04-29T12:56:57;11.80;;;7.55;;
36789;SDS011;22740;52.182;8.780;2023-04-29T13:03:12;10.95;;;7.20;;
36789;SDS011;22740;52.182;8.780;2023-04-29T13:09:28;10.93;;;6.75;;
36789;SDS011;22740;52.182;8.780;2023-04-29T13:15:37;14.02;;;7.30;;
36789;SDS011;22740;52.182;8.780;2023-04-29T13:21:45;11.80;;;7.50;;
36789;SDS011;22740;52.182;8.780;2023-04-29T13:27:54;9.95;;;6.95;;
36789;SDS011;22740;52.182;8.780;2023-04-29T13:34:03;7.70;;;5.72;;
36789;SDS011;22740;52.182;8.780;2023-04-29T13:40:12;11.75;;;6.35;;
36789;SDS011;22740;52.182;8.780;2023-04-29T13:46:21;9.07;;;5.95;;
36789;SDS011;22740;52.182;8.780;2023-04-29T13:52:31;7.80;;;5.85;;
36789;SDS011;22740;52.182;8.780;2023-04-29T13:58:59;8.82;;;6.22;;
36789;SDS011;22740;52.182;8.780;2023-04-29T14:05:17;7.82;;;6.10;;
36789;SDS011;22740;52.182;8.780;2023-04-29T14:11:26;7.97;;;5.07;;
36789;SDS011;22740;52.182;8.780;2023-04-29T14:17:34;8.32;;;5.70;;
36789;SDS011;22740;52.182;8.780;2023-04-29T14:23:43;8.10;;;5.70;;
36789;SDS011;22740;52.182;8.780;2023-04-29T14:29:51;7.72;;;4.85;;
36789;SDS011;22740;52.182;8.780;2023-04-29T14:35:59;8.27;;;5.10;;
36789;SDS011;22740;52.182;8.780;2023-04-29T14:42:07;10.23;;;5.80;;
36789;SDS011;22740;52.182;8.780;2023-04-29T14:48:15;9.10;;;5.35;;
36789;SDS011;22740;52.182;8.780;2023-04-29T14:54:23;9.13;;;6.22;;
36789;SDS011;22740;52.182;8.780;2023-04-29T15:00:35;9.65;;;5.82;;
36789;SDS011;22740;52.182;8.780;2023-04-29T15:06:43;8.20;;;5.00;;
36789;SDS011;22740;52.182;8.780;2023-04-29T15:12:58;9.85;;;5.25;;
36789;SDS011;22740;52.182;8.780;2023-04-29T15:19:07;9.13;;;4.47;;
36789;SDS011;22740;52.182;8.780;2023-04-29T15:25:15;7.93;;;4.28;;
36789;SDS011;22740;52.182;8.780;2023-04-29T15:31:27;7.28;;;5.25;;
36789;SDS011;22740;52.182;8.780;2023-04-29T15:37:36;8.32;;;5.05;;
36789;SDS011;22740;52.182;8.780;2023-04-29T15:43:45;7.78;;;5.30;;
36789;SDS011;22740;52.182;8.780;2023-04-29T15:49:53;8.80;;;5.43;;
36789;SDS011;22740;52.182;8.780;2023-04-29T15:56:02;7.57;;;5.15;;
36789;SDS011;22740;52.182;8.780;2023-04-29T16:02:11;7.80;;;4.88;;
36789;SDS011;22740;52.182;8.780;2023-04-29T16:08:28;8.13;;;5.00;;
36789;SDS011;22740;52.182;8.780;2023-04-29T16:14:36;7.30;;;5.15;;
36789;SDS011;22740;52.182;8.780;2023-04-29T16:20:44;11.75;;;5.20;;
36789;SDS011;22740;52.182;8.780;2023-04-29T16:26:52;5.97;;;4.20;;
36789;SDS011;22740;52.182;8.780;2023-04-29T16:33:02;7.03;;;4.55;;
36789;SDS011;22740;52.182;8.780;2023-04-29T16:39:10;5.60;;;3.80;;
36789;SDS011;22740;52.182;8.780;2023-04-29T16:45:18;6.57;;;4.22;;
36789;SDS011;22740;52.182;8.780;2023-04-29T16:51:28;7.03;;;3.80;;
36789;SDS011;22740;52.182;8.780;2023-04-29T16:57:37;7.95;;;4.10;;
36789;SDS011;22740;52.182;8.780;2023-04-29T17:03:47;8.68;;;4.10;;
36789;SDS011;22740;52.182;8.780;2023-04-29T17:10:03;9.63;;;4.35;;
36789;SDS011;22740;52.182;8.780;2023-04-29T17:16:12;9.70;;;3.92;;
36789;SDS011;22740;52.182;8.780;2023-04-29T17:22:21;6.22;;;3.90;;
36789;SDS011;22740;52.182;8.780;2023-04-29T17:28:31;6.60;;;4.18;;
36789;SDS011;22740;52.182;8.780;2023-04-29T17:34:39;8.43;;;3.47;;
36789;SDS011;22740;52.182;8.780;2023-04-29T17:40:48;4.70;;;3.40;;
36789;SDS011;22740;52.182;8.780;2023-04-29T17:46:56;7.78;;;3.97;;
36789;SDS011;22740;52.182;8.780;2023-04-29T17:53:04;6.03;;;4.10;;
36789;SDS011;22740;52.182;8.780;2023-04-29T17:59:12;7.90;;;4.03;;
36789;SDS011;22740;52.182;8.780;2023-04-29T18:05:27;8.02;;;3.45;;
36789;SDS011;22740;52.182;8.780;2023-04-29T18:11:35;7.40;;;3.33;;
36789;SDS011;22740;52.182;8.780;2023-04-29T18:17:43;8.63;;;3.20;;
36789;SDS011;22740;52.182;8.780;2023-04-29T18:23:52;5.90;;;3.20;;
36789;SDS011;22740;52.182;8.780;2023-04-29T18:30:01;9.55;;;3.13;;
36789;SDS011;22740;52.182;8.780;2023-04-29T18:36:10;6.30;;;2.80;;
36789;SDS011;22740;52.182;8.780;2023-04-29T18:42:20;6.35;;;2.80;;
36789;SDS011;22740;52.182;8.780;2023-04-29T18:48:35;8.30;;;2.83;;
36789;SDS011;22740;52.182;8.780;2023-04-29T18:54:45;6.75;;;2.95;;
36789;SDS011;22740;52.182;8.780;2023-04-29T19:00:53;8.55;;;4.38;;
36789;SDS011;22740;52.182;8.780;2023-04-29T19:07:08;7.47;;;3.05;;
36789;SDS011;22740;52.182;8.780;2023-04-29T19:13:17;8.55;;;3.38;;
36789;SDS011;22740;52.182;8.780;2023-04-29T19:19:25;6.07;;;2.80;;
36789;SDS011;22740;52.182;8.780;2023-04-29T19:25:33;6.55;;;2.97;;
36789;SDS011;22740;52.182;8.780;2023-04-29T19:31:42;5.78;;;2.75;;
36789;SDS011;22740;52.182;8.780;2023-04-29T19:37:50;5.57;;;2.97;;
36789;SDS011;22740;52.182;8.780;2023-04-29T19:44:01;7.05;;;3.33;;
36789;SDS011;22740;52.182;8.780;2023-04-29T19:50:09;6.28;;;3.55;;
36789;SDS011;22740;52.182;8.780;2023-04-29T19:56:17;8.18;;;3.53;;
36789;SDS011;22740;52.182;8.780;2023-04-29T20:02:26;10.80;;;3.58;;
36789;SDS011;22740;52.182;8.780;2023-04-29T20:08:35;6.55;;;4.05;;
36789;SDS011;22740;52.182;8.780;2023-04-29T20:14:43;7.60;;;3.65;;
36789;SDS011;22740;52.182;8.780;2023-04-29T20:20:51;6.97;;;4.20;;
36789;SDS011;22740;52.182;8.780;2023-04-29T20:26:59;9.00;;;4.38;;
36789;SDS011;22740;52.182;8.780;2023-04-29T20:33:08;6.35;;;3.47;;
36789;SDS011;22740;52.182;8.780;2023-04-29T20:39:16;5.75;;;3.50;;
36789;SDS011;22740;52.182;8.780;2023-04-29T20:45:25;6.68;;;3.28;;
36789;SDS011;22740;52.182;8.780;2023-04-29T20:51:33;5.88;;;3.17;;
36789;SDS011;22740;52.182;8.780;2023-04-29T20:57:42;5.30;;;2.75;;
36789;SDS011;22740;52.182;8.780;2023-04-29T21:03:50;5.25;;;3.00;;
36789;SDS011;22740;52.182;8.780;2023-04-29T21:09:58;5.57;;;3.17;;
36789;SDS011;22740;52.182;8.780;2023-04-29T21:16:13;5.57;;;3.17;;
36789;SDS011;22740;52.182;8.780;2023-04-29T21:22:22;6.05;;;2.90;;
36789;SDS011;22740;52.182;8.780;2023-04-29T21:28:30;6.78;;;2.97;;
36789;SDS011;22740;52.182;8.780;2023-04-29T21:34:38;7.40;;;3.38;;
36789;SDS011;22740;52.182;8.780;2023-04-29T21:40:46;4.47;;;2.60;;
36789;SDS011;22740;52.182;8.780;2023-04-29T21:46:55;4.55;;;2.88;;
36789;SDS011;22740;52.182;8.780;2023-04-29T21:53:03;9.20;;;3.05;;
36789;SDS011;22740;52.182;8.780;2023-04-29T21:59:14;7.05;;;3.03;;
36789;SDS011;22740;52.182;8.780;2023-04-29T22:05:22;4.68;;;2.90;;
36789;SDS011;22740;52.182;8.780;2023-04-29T22:11:32;5.72;;;2.90;;
36789;SDS011;22740;52.182;8.780;2023-04-29T22:17:40;7.43;;;3.40;;
36789;SDS011;22740;52.182;8.780;2023-04-29T22:23:49;5.85;;;3.22;;
36789;SDS011;22740;52.182;8.780;2023-04-29T22:29:57;5.97;;;3.13;;
36789;SDS011;22740;52.182;8.780;2023-04-29T22:36:05;6.93;;;3.10;;
36789;SDS011;22740;52.182;8.780;2023-04-29T22:42:14;10.10;;;3.38;;
36789;SDS011;22740;52.182;8.780;2023-04-29T22:48:22;10.02;;;4.15;;
36789;SDS011;22740;52.182;8.780;2023-04-29T22:54:30;7.90;;;3.40;;
36789;SDS011;22740;52.182;8.780;2023-04-29T23:00:41;8.60;;;3.63;;
36789;SDS011;22740;52.182;8.780;2023-04-29T23:06:50;5.22;;;3.47;;
36789;SDS011;22740;52.182;8.780;2023-04-29T23:13:05;10.07;;;3.97;;
36789;SDS011;22740;52.182;8.780;2023-04-29T23:19:13;6.75;;;3.53;;
36789;SDS011;22740;52.182;8.780;2023-04-29T23:25:21;10.60;;;3.83;;
36789;SDS011;22740;52.182;8.780;2023-04-29T23:31:29;9.25;;;3.40;;
36789;SDS011;22740;52.182;8.780;2023-04-29T23:37:38;6.03;;;3.55;;
36789;SDS011;22740;52.182;8.780;2023-04-29T23:43:46;5.32;;;3.35;;
36789;SDS011;22740;52.182;8.780;2023-04-29T23:49:54;8.90;;;4.40;;
36789;SDS011;22740;52.182;8.780;2023-04-29T23:56:02;8.05;;;3.70;;
